createdAt,value
2022-10-31T00:03:24.478Z,100910.84
2022-10-31T00:08:26.505Z,100911.72
2022-10-31T00:13:28.492Z,100902.88
2022-10-31T00:18:30.662Z,100904.63
2022-10-31T00:23:32.611Z,100911.69
2022-10-31T00:28:34.869Z,100914.34
2022-10-31T00:33:38.959Z,100915.22
2022-10-31T00:38:41.733Z,100919.66
2022-10-31T00:43:44.677Z,100924.97
2022-10-31T00:48:46.722Z,100927.63
2022-10-31T00:53:48.642Z,100924.97
2022-10-31T00:58:50.606Z,100934.69
2022-10-31T01:03:52.551Z,100937.34
2022-10-31T01:08:54.514Z,100925.88
2022-10-31T01:13:56.576Z,100934.72
2022-10-31T01:18:58.544Z,100932.06
2022-10-31T01:24:00.943Z,100926.78
2022-10-31T01:29:08.223Z,100928.56
2022-10-31T01:34:15.553Z,100923.25
2022-10-31T01:39:17.540Z,100919.72
2022-10-31T01:44:19.365Z,100922.38
2022-10-31T01:49:43.605Z,100916.19
2022-10-31T01:55:09.287Z,100910.91
2022-10-31T02:05:30.746Z,100918.84
2022-10-31T02:10:34.532Z,100919.75
2022-10-31T02:15:38.819Z,100915.31
2022-10-31T02:20:49.599Z,100909.13
2022-10-31T02:26:15.493Z,100911.78
2022-10-31T02:31:26.184Z,100906.50
2022-10-31T02:36:46.888Z,100903.84
2022-10-31T02:41:54.779Z,100901.19
2022-10-31T02:47:14.959Z,100884.38
2022-10-31T02:52:26.597Z,100902.09
2022-10-31T02:57:36.176Z,100902.09
2022-10-31T03:03:02.621Z,100910.06
2022-10-31T03:08:27.928Z,100918.00
2022-10-31T03:13:47.007Z,100919.78
2022-10-31T03:18:59.114Z,100930.41
2022-10-31T03:24:03.353Z,100937.47
2022-10-31T03:29:08.773Z,100937.50
2022-10-31T03:34:13.674Z,100948.13
2022-10-31T03:39:19.716Z,100956.97
2022-10-31T03:44:23.870Z,100958.75
2022-10-31T03:49:26.604Z,100961.38
2022-10-31T03:54:34.969Z,100976.44
2022-10-31T03:59:42.411Z,100973.78
2022-10-31T04:04:46.820Z,100975.56
2022-10-31T04:09:51.742Z,100964.94
2022-10-31T04:14:54.461Z,100969.38
2022-10-31T04:19:56.430Z,100967.59
2022-10-31T04:24:58.410Z,100965.84
2022-10-31T04:30:01.111Z,100974.69
2022-10-31T04:35:03.127Z,100964.94
2022-10-31T04:40:06.092Z,100972.03
2022-10-31T04:45:08.269Z,100973.81
2022-10-31T04:50:10.176Z,100981.78
2022-10-31T04:55:13.255Z,100979.13
2022-10-31T05:00:17.393Z,100975.59
2022-10-31T05:05:22.241Z,100972.03
2022-10-31T05:10:27.133Z,100966.75
2022-10-31T05:15:29.999Z,100963.19
2022-10-31T05:20:32.612Z,100963.19
2022-10-31T05:25:34.620Z,100961.44
2022-10-31T05:30:36.790Z,100972.06
2022-10-31T05:35:38.771Z,100972.94
2022-10-31T05:40:40.854Z,100974.72
2022-10-31T05:45:42.842Z,100972.94
2022-10-31T05:50:44.894Z,100972.94
2022-10-31T05:55:48.749Z,100978.25
2022-10-31T06:00:50.825Z,100978.25
2022-10-31T06:05:55.178Z,100978.25
2022-10-31T06:10:57.835Z,100978.25
2022-10-31T06:16:00.009Z,100977.38
2022-10-31T06:21:01.891Z,100988.91
2022-10-31T06:26:04.029Z,100982.69
2022-10-31T06:31:06.669Z,100995.09
2022-10-31T06:36:09.707Z,101002.19
2022-10-31T06:41:12.087Z,100998.66
2022-10-31T06:46:14.078Z,101011.06
2022-10-31T06:51:16.229Z,101008.41
2022-10-31T06:56:18.348Z,101019.94
2022-10-31T07:01:20.598Z,101027.03
2022-10-31T07:06:24.250Z,101034.13
2022-10-31T07:11:27.972Z,101039.44
2022-10-31T07:16:31.393Z,101048.31
2022-10-31T07:21:33.491Z,101045.66
2022-10-31T07:26:39.038Z,101046.56
2022-10-31T07:31:44.284Z,101056.31
2022-10-31T07:36:47.182Z,101043.91
2022-10-31T07:41:49.263Z,101059.88
2022-10-31T07:46:51.130Z,101062.56
2022-10-31T07:51:54.590Z,101060.81
2022-10-31T07:56:59.502Z,101068.78
2022-10-31T08:02:03.659Z,101068.78
2022-10-31T08:07:05.782Z,101072.34
2022-10-31T08:12:07.792Z,101082.06
2022-10-31T08:17:09.923Z,101070.53
2022-10-31T08:22:12.145Z,101074.97
2022-10-31T08:27:14.603Z,101064.34
2022-10-31T08:32:17.290Z,101065.22
2022-10-31T08:37:21.521Z,101074.97
2022-10-31T08:42:23.753Z,101070.53
2022-10-31T08:47:25.875Z,101084.72
2022-10-31T08:52:51.252Z,101082.94
2022-10-31T08:57:55.691Z,101084.72
2022-10-31T09:03:02.852Z,101082.06
2022-10-31T09:08:07.870Z,101088.28
2022-10-31T09:13:15.315Z,101075.88
2022-10-31T09:18:20.557Z,101082.97
2022-10-31T09:23:26.830Z,101090.06
2022-10-31T09:28:29.532Z,101103.34
2022-10-31T09:33:31.774Z,101098.03
2022-10-31T09:38:34.278Z,101101.59
2022-10-31T09:43:40.263Z,101103.34
2022-10-31T09:48:52.602Z,101100.69
2022-10-31T09:54:20.783Z,101111.34
2022-10-31T09:59:39.827Z,101108.69
2022-10-31T10:04:51.711Z,101110.44
2022-10-31T10:09:53.875Z,101102.47
2022-10-31T10:15:20.495Z,101106.88
2022-10-31T10:20:55.144Z,101109.56
2022-10-31T10:26:11.529Z,101106.88
2022-10-31T10:31:18.249Z,101106.00
2022-10-31T10:36:28.451Z,101088.25
2022-10-31T10:41:34.953Z,101096.22
2022-10-31T10:47:09.672Z,101093.56
2022-10-31T10:57:56.837Z,101106.81
2022-10-31T11:02:58.904Z,101111.22
2022-10-31T11:08:01.133Z,101102.38
2022-10-31T11:13:25.052Z,101099.69
2022-10-31T11:18:30.506Z,101091.72
2022-10-31T11:23:34.187Z,101100.59
2022-10-31T11:28:39.510Z,101096.13
2022-10-31T11:33:49.453Z,101101.47
2022-10-31T11:42:08.770Z,101100.50
2022-10-31T11:47:15.825Z,101090.69
2022-10-31T11:52:23.449Z,101094.25
2022-10-31T11:57:43.882Z,101090.63
2022-10-31T12:05:24.912Z,101102.16
2022-10-31T12:10:38.642Z,101101.28
2022-10-31T12:15:51.698Z,101099.50
2022-10-31T12:21:05.807Z,101093.28
2022-10-31T12:26:28.522Z,101098.59
2022-10-31T12:32:16.488Z,101088.78
2022-10-31T12:37:50.108Z,101091.44
2022-10-31T12:43:27.470Z,101089.69
2022-10-31T12:48:35.356Z,101097.63
2022-10-31T12:53:58.454Z,101092.34
2022-10-31T12:59:32.893Z,101096.78
2022-10-31T13:05:13.755Z,101098.56
2022-10-31T13:10:31.983Z,101086.91
2022-10-31T13:15:50.210Z,101082.44
2022-10-31T13:20:56.003Z,101092.22
2022-10-31T13:26:01.261Z,101091.34
2022-10-31T13:31:04.102Z,101096.66
2022-10-31T13:36:27.984Z,101094.88
2022-10-31T13:41:47.458Z,101092.19
2022-10-31T13:46:49.879Z,101088.63
2022-10-31T13:51:53.902Z,101091.28
2022-10-31T13:56:55.923Z,101082.38
2022-10-31T14:02:01.648Z,101086.81
2022-10-31T14:07:11.143Z,101086.81
2022-10-31T14:12:36.942Z,101085.00
2022-10-31T14:17:48.352Z,101085.19
2022-10-31T14:22:50.534Z,101077.47
2022-10-31T14:28:02.354Z,101071.16
2022-10-31T14:33:20.992Z,101078.31
2022-10-31T14:38:24.526Z,101082.50
2022-10-31T14:43:54.347Z,101070.78
2022-10-31T14:49:06.499Z,101078.22
2022-10-31T14:54:17.544Z,101073.94
2022-10-31T14:59:25.823Z,101077.28
2022-10-31T15:04:31.623Z,101059.50
2022-10-31T15:09:36.109Z,101070.13
2022-10-31T15:14:38.297Z,101067.09
2022-10-31T15:19:40.759Z,101066.34
2022-10-31T15:24:45.139Z,101071.75
2022-10-31T15:29:54.230Z,101078.75
2022-10-31T15:34:59.290Z,101080.28
2022-10-31T15:40:13.876Z,101073.59
2022-10-31T15:45:16.095Z,101079.50
2022-10-31T15:50:26.078Z,101091.50
2022-10-31T15:55:34.879Z,101086.84
2022-10-31T16:00:40.116Z,101089.13
2022-10-31T16:05:50.886Z,101099.69
2022-10-31T16:10:54.122Z,101107.84
2022-10-31T16:16:33.613Z,101100.31
2022-10-31T16:21:33.723Z,101109.78
2022-10-31T16:26:36.491Z,101114.06
2022-10-31T16:31:41.584Z,101110.03
2022-10-31T16:36:44.632Z,101117.22
2022-10-31T16:41:53.385Z,101111.91
2022-10-31T16:47:07.695Z,101115.47
2022-10-31T16:52:12.051Z,101118.13
2022-10-31T16:57:22.741Z,101114.59
2022-10-31T17:02:26.103Z,101116.38
2022-10-31T17:07:29.790Z,101123.47
2022-10-31T17:12:32.304Z,101119.03
2022-10-31T17:17:34.280Z,101119.94
2022-10-31T17:22:36.122Z,101114.59
2022-10-31T17:27:43.469Z,101115.50
2022-10-31T17:32:50.977Z,101118.16
2022-10-31T17:37:53.389Z,101108.41
2022-10-31T17:42:58.268Z,101105.72
2022-10-31T17:48:01.207Z,101100.41
2022-10-31T17:53:03.949Z,101097.72
2022-10-31T17:58:06.619Z,101100.41
2022-10-31T18:03:09.172Z,101098.63
2022-10-31T18:08:11.493Z,101096.84
2022-10-31T18:13:13.701Z,101101.28
2022-10-31T18:18:16.220Z,101103.06
2022-10-31T18:23:18.299Z,101094.19
2022-10-31T18:28:20.818Z,101097.75
2022-10-31T18:33:24.160Z,101095.97
2022-10-31T18:38:29.499Z,101087.97
2022-10-31T18:43:32.948Z,101079.09
2022-10-31T18:48:37.111Z,101080.88
2022-10-31T18:53:39.364Z,101090.63
2022-10-31T18:58:41.917Z,101087.97
2022-10-31T19:03:45.263Z,101091.53
2022-10-31T19:08:48.464Z,101089.75
2022-10-31T19:13:53.676Z,101079.09
2022-10-31T19:19:00.956Z,101080.88
2022-10-31T19:24:10.773Z,101077.31
2022-10-31T19:29:13.853Z,101077.31
2022-10-31T19:34:21.070Z,101081.75
2022-10-31T19:39:26.050Z,101072.91
2022-10-31T19:44:32.959Z,101081.78
2022-10-31T19:49:45.430Z,101088.00
2022-10-31T19:54:54.487Z,101072.88
2022-10-31T19:59:57.601Z,101067.56
2022-10-31T20:05:09.919Z,101071.09
2022-10-31T20:10:23.906Z,101075.56
2022-10-31T20:15:27.417Z,101068.47
2022-10-31T20:20:50.155Z,101072.00
2022-10-31T20:26:00.354Z,101070.25
2022-10-31T20:31:11.279Z,101078.25
2022-10-31T20:36:16.069Z,101075.59
2022-10-31T20:41:22.586Z,101079.13
2022-10-31T20:46:29.259Z,101072.03
2022-10-31T20:51:34.646Z,101073.81
2022-10-31T20:56:38.090Z,101065.81
2022-10-31T21:01:42.772Z,101073.81
2022-10-31T21:06:49.662Z,101064.03
2022-10-31T21:11:54.896Z,101062.25
2022-10-31T21:16:57.542Z,101064.03
2022-10-31T21:22:02.493Z,101057.81
2022-10-31T21:27:10.068Z,101048.94
2022-10-31T21:32:18.000Z,101043.63
2022-10-31T21:37:20.489Z,101039.19
2022-10-31T21:42:23.644Z,101032.06
2022-10-31T21:47:27.224Z,101022.28
2022-10-31T21:52:31.705Z,101023.19
2022-10-31T21:57:35.087Z,101035.59
2022-10-31T22:02:40.580Z,101031.16
2022-10-31T22:07:44.216Z,101024.06
2022-10-31T22:12:46.278Z,101028.50
2022-10-31T22:17:49.028Z,101030.28
2022-10-31T22:22:51.375Z,101021.41
2022-10-31T22:27:53.405Z,101022.28
2022-10-31T22:32:55.416Z,101016.09
2022-10-31T22:37:57.545Z,101015.19
2022-10-31T22:42:59.890Z,101016.09
2022-10-31T22:48:02.591Z,101008.09
2022-10-31T22:53:04.736Z,101000.09
2022-10-31T22:58:06.581Z,101004.56
2022-10-31T23:03:08.630Z,101002.78
2022-10-31T23:08:10.608Z,100997.44
2022-10-31T23:13:30.862Z,100982.34
2022-10-31T23:18:50.152Z,100986.78
2022-10-31T23:23:52.430Z,100989.47
2022-10-31T23:28:54.355Z,100973.47
2022-10-31T23:33:56.251Z,100977.94
2022-10-31T23:38:58.269Z,100974.38
2022-10-31T23:44:00.089Z,100976.16
2022-10-31T23:49:02.263Z,100972.59
2022-10-31T23:54:04.345Z,100980.59
2022-10-31T23:59:06.575Z,100980.59
